sensor_id;sensor_type;location;lat;lon;timestamp;temperature;humidity
41987;DHT22;28361;50.740;7.084;2023-06-04T12:42:29;16.70;1.00
41987;DHT22;28361;50.740;7.084;2023-06-04T12:44:55;29.00;1.00
41987;DHT22;28361;50.740;7.084;2023-06-04T12:47:21;29.20;1.00
41987;DHT22;28361;50.740;7.084;2023-06-04T12:49:47;29.30;1.00
41987;DHT22;28361;50.740;7.084;2023-06-04T12:52:13;28.80;1.00
41987;DHT22;28361;50.740;7.084;2023-06-04T12:54:42;29.60;1.00
41987;DHT22;28361;50.740;7.084;2023-06-04T12:57:08;29.80;1.00
41987;DHT22;28361;50.740;7.084;2023-06-04T12:59:33;29.70;1.00
41987;DHT22;28361;50.740;7.084;2023-06-04T13:01:59;29.50;1.00
41987;DHT22;28361;50.740;7.084;2023-06-04T13:04:25;30.00;1.00
41987;DHT22;28361;50.740;7.084;2023-06-04T13:06:52;30.20;1.00
41987;DHT22;28361;50.740;7.084;2023-06-04T13:09:20;30.00;1.00
41987;DHT22;28361;50.740;7.084;2023-06-04T13:11:48;30.20;1.00
41987;DHT22;28361;50.740;7.084;2023-06-04T13:14:14;30.20;1.00
41987;DHT22;28361;50.740;7.084;2023-06-04T13:16:40;30.60;1.00
41987;DHT22;28361;50.740;7.084;2023-06-04T13:19:06;30.40;1.00
41987;DHT22;28361;50.740;7.084;2023-06-04T13:21:32;30.00;1.00
41987;DHT22;28361;50.740;7.084;2023-06-04T13:23:58;29.50;1.00
41987;DHT22;28361;50.740;7.084;2023-06-04T13:26:23;29.90;1.00
41987;DHT22;28361;50.740;7.084;2023-06-04T13:28:49;29.80;1.00
41987;DHT22;28361;50.740;7.084;2023-06-04T13:31:15;30.20;1.00
41987;DHT22;28361;50.740;7.084;2023-06-04T13:33:41;29.90;1.00
41987;DHT22;28361;50.740;7.084;2023-06-04T13:36:07;29.90;1.00
41987;DHT22;28361;50.740;7.084;2023-06-04T13:38:33;29.70;1.00
41987;DHT22;28361;50.740;7.084;2023-06-04T13:40:59;29.70;1.00
41987;DHT22;28361;50.740;7.084;2023-06-04T13:43:25;29.80;1.00
41987;DHT22;28361;50.740;7.084;2023-06-04T13:45:50;29.70;1.00
41987;DHT22;28361;50.740;7.084;2023-06-04T13:48:16;30.40;1.00
41987;DHT22;28361;50.740;7.084;2023-06-04T13:50:42;30.00;1.00
41987;DHT22;28361;50.740;7.084;2023-06-04T13:53:08;30.40;1.00
41987;DHT22;28361;50.740;7.084;2023-06-04T13:55:34;30.30;1.00
41987;DHT22;28361;50.740;7.084;2023-06-04T13:58:00;30.20;1.00
41987;DHT22;28361;50.740;7.084;2023-06-04T14:00:25;30.20;1.00
41987;DHT22;28361;50.740;7.084;2023-06-04T14:02:52;30.40;1.00
41987;DHT22;28361;50.740;7.084;2023-06-04T14:05:20;30.40;1.00
41987;DHT22;28361;50.740;7.084;2023-06-04T14:07:46;30.60;1.00
41987;DHT22;28361;50.740;7.084;2023-06-04T14:10:11;30.60;1.00
41987;DHT22;28361;50.740;7.084;2023-06-04T14:12:38;31.00;1.00
41987;DHT22;28361;50.740;7.084;2023-06-04T14:15:07;30.60;1.00
41987;DHT22;28361;50.740;7.084;2023-06-04T14:17:34;30.90;1.00
41987;DHT22;28361;50.740;7.084;2023-06-04T14:20:01;31.20;1.00
41987;DHT22;28361;50.740;7.084;2023-06-04T14:22:38;30.90;1.00
41987;DHT22;28361;50.740;7.084;2023-06-04T14:25:05;31.00;1.00
41987;DHT22;28361;50.740;7.084;2023-06-04T14:27:31;31.50;1.00
41987;DHT22;28361;50.740;7.084;2023-06-04T14:29:57;31.40;1.00
41987;DHT22;28361;50.740;7.084;2023-06-04T14:32:23;31.40;1.00
41987;DHT22;28361;50.740;7.084;2023-06-04T14:34:48;31.20;1.00
41987;DHT22;28361;50.740;7.084;2023-06-04T14:37:14;30.90;1.00
41987;DHT22;28361;50.740;7.084;2023-06-04T14:39:40;31.40;1.00
41987;DHT22;28361;50.740;7.084;2023-06-04T14:42:06;31.70;1.00
41987;DHT22;28361;50.740;7.084;2023-06-04T14:44:31;31.50;1.00
41987;DHT22;28361;50.740;7.084;2023-06-04T14:46:58;31.30;1.00
41987;DHT22;28361;50.740;7.084;2023-06-04T14:49:23;31.50;1.00
41987;DHT22;28361;50.740;7.084;2023-06-04T14:51:49;32.10;1.00
41987;DHT22;28361;50.740;7.084;2023-06-04T14:54:15;32.40;1.00
41987;DHT22;28361;50.740;7.084;2023-06-04T14:56:41;32.60;1.00
41987;DHT22;28361;50.740;7.084;2023-06-04T14:59:07;32.70;1.00
41987;DHT22;28361;50.740;7.084;2023-06-04T15:01:37;32.40;1.00
41987;DHT22;28361;50.740;7.084;2023-06-04T15:04:03;32.70;1.00
41987;DHT22;28361;50.740;7.084;2023-06-04T15:06:29;32.90;1.00
41987;DHT22;28361;50.740;7.084;2023-06-04T15:08:54;32.40;1.00
41987;DHT22;28361;50.740;7.084;2023-06-04T15:11:20;32.30;1.00
41987;DHT22;28361;50.740;7.084;2023-06-04T15:13:45;32.90;1.00
41987;DHT22;28361;50.740;7.084;2023-06-04T16:07:22;33.20;1.00
41987;DHT22;28361;50.740;7.084;2023-06-04T16:09:48;32.40;1.00
41987;DHT22;28361;50.740;7.084;2023-06-04T16:12:13;32.60;1.00
41987;DHT22;28361;50.740;7.084;2023-06-04T16:14:39;32.80;1.00
41987;DHT22;28361;50.740;7.084;2023-06-04T16:17:04;32.40;1.00
41987;DHT22;28361;50.740;7.084;2023-06-04T16:19:30;32.40;1.00
41987;DHT22;28361;50.740;7.084;2023-06-04T16:21:56;32.80;1.00
41987;DHT22;28361;50.740;7.084;2023-06-04T16:24:21;32.50;1.00
41987;DHT22;28361;50.740;7.084;2023-06-04T16:26:47;32.50;1.00
41987;DHT22;28361;50.740;7.084;2023-06-04T16:29:13;32.40;1.00
41987;DHT22;28361;50.740;7.084;2023-06-04T16:31:39;32.30;1.00
41987;DHT22;28361;50.740;7.084;2023-06-04T16:34:05;32.70;1.00
41987;DHT22;28361;50.740;7.084;2023-06-04T16:36:30;32.80;1.00
41987;DHT22;28361;50.740;7.084;2023-06-04T16:38:56;32.80;1.00
41987;DHT22;28361;50.740;7.084;2023-06-04T16:41:21;31.80;1.00
41987;DHT22;28361;50.740;7.084;2023-06-04T16:43:47;32.00;1.00
41987;DHT22;28361;50.740;7.084;2023-06-04T16:46:13;31.50;1.00
41987;DHT22;28361;50.740;7.084;2023-06-04T16:48:38;31.50;1.00
41987;DHT22;28361;50.740;7.084;2023-06-04T16:51:04;31.50;1.00
41987;DHT22;28361;50.740;7.084;2023-06-04T16:53:30;31.90;1.00
41987;DHT22;28361;50.740;7.084;2023-06-04T16:55:56;32.00;1.00
41987;DHT22;28361;50.740;7.084;2023-06-04T16:58:21;31.10;1.00
41987;DHT22;28361;50.740;7.084;2023-06-04T17:00:47;31.50;1.00
41987;DHT22;28361;50.740;7.084;2023-06-04T17:03:13;31.70;1.00
41987;DHT22;28361;50.740;7.084;2023-06-04T17:05:39;32.10;1.00
41987;DHT22;28361;50.740;7.084;2023-06-04T17:08:05;32.10;1.00
41987;DHT22;28361;50.740;7.084;2023-06-04T17:10:31;31.50;1.00
41987;DHT22;28361;50.740;7.084;2023-06-04T17:13:01;31.30;1.00
41987;DHT22;28361;50.740;7.084;2023-06-04T17:15:30;30.80;1.00
41987;DHT22;28361;50.740;7.084;2023-06-04T17:17:55;30.20;1.00
41987;DHT22;28361;50.740;7.084;2023-06-04T17:20:28;29.90;1.00
41987;DHT22;28361;50.740;7.084;2023-06-04T17:22:57;29.70;1.00
41987;DHT22;28361;50.740;7.084;2023-06-04T17:25:22;29.40;1.00
41987;DHT22;28361;50.740;7.084;2023-06-04T17:27:48;28.60;1.00
41987;DHT22;28361;50.740;7.084;2023-06-04T17:30:19;28.30;1.00
41987;DHT22;28361;50.740;7.084;2023-06-04T17:32:48;27.50;1.00
41987;DHT22;28361;50.740;7.084;2023-06-04T17:35:15;26.40;1.00
41987;DHT22;28361;50.740;7.084;2023-06-04T17:37:41;25.90;1.00
41987;DHT22;28361;50.740;7.084;2023-06-04T17:40:07;25.60;1.00
41987;DHT22;28361;50.740;7.084;2023-06-04T17:42:33;25.30;1.00
41987;DHT22;28361;50.740;7.084;2023-06-04T17:45:01;25.00;1.00
41987;DHT22;28361;50.740;7.084;2023-06-04T17:47:29;24.80;1.00
41987;DHT22;28361;50.740;7.084;2023-06-04T17:49:55;24.80;1.00
41987;DHT22;28361;50.740;7.084;2023-06-04T17:52:21;24.60;1.00
41987;DHT22;28361;50.740;7.084;2023-06-04T17:54:46;24.60;1.00
41987;DHT22;28361;50.740;7.084;2023-06-04T17:57:13;24.50;1.00
41987;DHT22;28361;50.740;7.084;2023-06-04T17:59:39;24.30;1.00
41987;DHT22;28361;50.740;7.084;2023-06-04T18:02:05;24.20;1.00
41987;DHT22;28361;50.740;7.084;2023-06-04T18:04:31;24.20;1.00
41987;DHT22;28361;50.740;7.084;2023-06-04T18:06:57;24.10;1.00
41987;DHT22;28361;50.740;7.084;2023-06-04T18:09:23;24.10;1.00
41987;DHT22;28361;50.740;7.084;2023-06-04T18:11:48;24.00;1.00
41987;DHT22;28361;50.740;7.084;2023-06-04T18:14:14;23.90;1.00
41987;DHT22;28361;50.740;7.084;2023-06-04T18:16:39;23.90;1.00
41987;DHT22;28361;50.740;7.084;2023-06-04T18:19:05;23.80;1.00
41987;DHT22;28361;50.740;7.084;2023-06-04T18:21:30;23.70;1.00
41987;DHT22;28361;50.740;7.084;2023-06-04T18:23:56;23.70;1.00
41987;DHT22;28361;50.740;7.084;2023-06-04T18:26:22;23.70;1.00
41987;DHT22;28361;50.740;7.084;2023-06-04T18:28:48;23.60;1.00
41987;DHT22;28361;50.740;7.084;2023-06-04T18:31:13;23.50;1.00
41987;DHT22;28361;50.740;7.084;2023-06-04T18:33:52;23.40;1.00
41987;DHT22;28361;50.740;7.084;2023-06-04T18:36:19;23.40;1.00
41987;DHT22;28361;50.740;7.084;2023-06-04T18:38:44;23.30;1.00
41987;DHT22;28361;50.740;7.084;2023-06-04T18:41:10;23.30;1.00
41987;DHT22;28361;50.740;7.084;2023-06-04T18:43:39;23.10;1.00
41987;DHT22;28361;50.740;7.084;2023-06-04T18:46:04;23.10;1.00
41987;DHT22;28361;50.740;7.084;2023-06-04T18:48:30;23.00;1.00
41987;DHT22;28361;50.740;7.084;2023-06-04T18:50:56;23.00;1.00
41987;DHT22;28361;50.740;7.084;2023-06-04T18:53:21;22.90;1.00
41987;DHT22;28361;50.740;7.084;2023-06-04T18:55:47;22.90;1.00
41987;DHT22;28361;50.740;7.084;2023-06-04T18:58:12;22.80;1.00
41987;DHT22;28361;50.740;7.084;2023-06-04T19:00:38;22.70;1.00
41987;DHT22;28361;50.740;7.084;2023-06-04T19:03:04;22.60;1.00
41987;DHT22;28361;50.740;7.084;2023-06-04T19:05:29;22.60;1.00
41987;DHT22;28361;50.740;7.084;2023-06-04T19:07:55;22.60;1.00
41987;DHT22;28361;50.740;7.084;2023-06-04T19:10:20;22.50;1.00
41987;DHT22;28361;50.740;7.084;2023-06-04T19:12:46;22.40;1.00
41987;DHT22;28361;50.740;7.084;2023-06-04T19:15:12;22.30;1.00
41987;DHT22;28361;50.740;7.084;2023-06-04T19:17:40;22.20;1.00
41987;DHT22;28361;50.740;7.084;2023-06-04T19:20:06;22.10;1.00
41987;DHT22;28361;50.740;7.084;2023-06-04T19:22:32;22.10;1.00
41987;DHT22;28361;50.740;7.084;2023-06-04T19:24:57;22.00;1.00
41987;DHT22;28361;50.740;7.084;2023-06-04T19:27:23;21.90;1.00
41987;DHT22;28361;50.740;7.084;2023-06-04T19:29:48;21.80;1.00
41987;DHT22;28361;50.740;7.084;2023-06-04T19:32:14;21.80;1.00
41987;DHT22;28361;50.740;7.084;2023-06-04T19:34:40;21.70;1.00
41987;DHT22;28361;50.740;7.084;2023-06-04T19:37:06;21.70;1.00
41987;DHT22;28361;50.740;7.084;2023-06-04T19:39:32;21.60;1.00
41987;DHT22;28361;50.740;7.084;2023-06-04T19:41:58;21.50;1.00
41987;DHT22;28361;50.740;7.084;2023-06-04T19:44:23;21.40;1.00
41987;DHT22;28361;50.740;7.084;2023-06-04T19:46:49;21.40;1.00
41987;DHT22;28361;50.740;7.084;2023-06-04T19:49:15;21.40;1.00
41987;DHT22;28361;50.740;7.084;2023-06-04T19:51:41;21.30;1.00
41987;DHT22;28361;50.740;7.084;2023-06-04T19:54:07;21.30;1.00
41987;DHT22;28361;50.740;7.084;2023-06-04T19:56:32;21.20;1.00
41987;DHT22;28361;50.740;7.084;2023-06-04T19:58:58;21.10;1.00
41987;DHT22;28361;50.740;7.084;2023-06-04T20:01:25;21.10;1.00
41987;DHT22;28361;50.740;7.084;2023-06-04T20:03:50;21.10;1.00
41987;DHT22;28361;50.740;7.084;2023-06-04T20:06:16;21.10;1.00
41987;DHT22;28361;50.740;7.084;2023-06-04T20:08:42;21.00;1.00
41987;DHT22;28361;50.740;7.084;2023-06-04T20:11:08;21.00;1.00
41987;DHT22;28361;50.740;7.084;2023-06-04T20:13:35;20.90;1.00
41987;DHT22;28361;50.740;7.084;2023-06-04T20:16:01;20.80;1.00
41987;DHT22;28361;50.740;7.084;2023-06-04T20:18:27;20.80;1.00
41987;DHT22;28361;50.740;7.084;2023-06-04T20:20:54;20.70;1.00
41987;DHT22;28361;50.740;7.084;2023-06-04T20:23:20;20.60;1.00
41987;DHT22;28361;50.740;7.084;2023-06-04T20:25:46;20.60;1.00
41987;DHT22;28361;50.740;7.084;2023-06-04T20:28:11;20.50;1.00
41987;DHT22;28361;50.740;7.084;2023-06-04T20:30:37;20.50;1.00
41987;DHT22;28361;50.740;7.084;2023-06-04T20:33:03;20.50;1.00
41987;DHT22;28361;50.740;7.084;2023-06-04T20:35:28;20.40;1.00
41987;DHT22;28361;50.740;7.084;2023-06-04T20:37:54;20.30;1.00
41987;DHT22;28361;50.740;7.084;2023-06-04T20:40:23;20.40;1.00
41987;DHT22;28361;50.740;7.084;2023-06-04T20:42:48;20.30;1.00
41987;DHT22;28361;50.740;7.084;2023-06-04T20:45:15;20.30;1.00
41987;DHT22;28361;50.740;7.084;2023-06-04T20:47:41;20.20;1.00
41987;DHT22;28361;50.740;7.084;2023-06-04T20:50:07;20.20;1.00
41987;DHT22;28361;50.740;7.084;2023-06-04T20:52:32;20.20;1.00
41987;DHT22;28361;50.740;7.084;2023-06-04T20:54:58;20.20;1.00
41987;DHT22;28361;50.740;7.084;2023-06-04T20:57:24;20.10;1.00
41987;DHT22;28361;50.740;7.084;2023-06-04T20:59:50;20.10;1.00
41987;DHT22;28361;50.740;7.084;2023-06-04T21:02:16;20.10;1.00
41987;DHT22;28361;50.740;7.084;2023-06-04T21:04:41;20.10;1.00
41987;DHT22;28361;50.740;7.084;2023-06-04T21:07:07;20.10;1.00
41987;DHT22;28361;50.740;7.084;2023-06-04T21:09:33;20.10;1.00
41987;DHT22;28361;50.740;7.084;2023-06-04T21:11:58;20.00;1.00
41987;DHT22;28361;50.740;7.084;2023-06-04T21:14:24;20.00;1.00
41987;DHT22;28361;50.740;7.084;2023-06-04T21:16:50;19.90;1.00
41987;DHT22;28361;50.740;7.084;2023-06-04T21:19:15;19.90;1.00
41987;DHT22;28361;50.740;7.084;2023-06-04T21:21:41;19.90;1.00
41987;DHT22;28361;50.740;7.084;2023-06-04T21:24:07;19.80;1.00
41987;DHT22;28361;50.740;7.084;2023-06-04T21:26:32;19.70;1.00
41987;DHT22;28361;50.740;7.084;2023-06-04T21:28:58;19.70;1.00
41987;DHT22;28361;50.740;7.084;2023-06-04T21:31:24;19.60;1.00
41987;DHT22;28361;50.740;7.084;2023-06-04T21:33:49;19.50;1.00
41987;DHT22;28361;50.740;7.084;2023-06-04T21:36:15;19.50;1.00
41987;DHT22;28361;50.740;7.084;2023-06-04T21:38:41;19.50;1.00
41987;DHT22;28361;50.740;7.084;2023-06-04T21:41:07;19.40;1.00
41987;DHT22;28361;50.740;7.084;2023-06-04T21:43:32;19.40;1.00
41987;DHT22;28361;50.740;7.084;2023-06-04T21:45:58;19.40;1.00
41987;DHT22;28361;50.740;7.084;2023-06-04T21:48:24;19.30;1.00
41987;DHT22;28361;50.740;7.084;2023-06-04T21:50:49;19.30;1.00
41987;DHT22;28361;50.740;7.084;2023-06-04T21:53:15;19.20;1.00
41987;DHT22;28361;50.740;7.084;2023-06-04T21:55:40;19.20;1.00
41987;DHT22;28361;50.740;7.084;2023-06-04T21:58:06;19.10;1.00
41987;DHT22;28361;50.740;7.084;2023-06-04T22:00:32;19.10;1.00
41987;DHT22;28361;50.740;7.084;2023-06-04T22:02:57;19.10;1.00
41987;DHT22;28361;50.740;7.084;2023-06-04T22:05:23;19.00;1.00
41987;DHT22;28361;50.740;7.084;2023-06-04T22:07:49;19.00;1.00
41987;DHT22;28361;50.740;7.084;2023-06-04T22:10:14;18.90;1.00
41987;DHT22;28361;50.740;7.084;2023-06-04T22:12:40;18.80;1.00
41987;DHT22;28361;50.740;7.084;2023-06-04T22:15:07;18.70;1.00
41987;DHT22;28361;50.740;7.084;2023-06-04T22:17:33;18.70;1.00
41987;DHT22;28361;50.740;7.084;2023-06-04T22:19:58;18.60;1.00
41987;DHT22;28361;50.740;7.084;2023-06-04T22:22:24;18.60;1.00
41987;DHT22;28361;50.740;7.084;2023-06-04T22:24:49;18.60;1.00
41987;DHT22;28361;50.740;7.084;2023-06-04T22:27:15;18.50;1.00
41987;DHT22;28361;50.740;7.084;2023-06-04T22:29:41;18.40;1.00
41987;DHT22;28361;50.740;7.084;2023-06-04T22:32:06;18.40;1.00
41987;DHT22;28361;50.740;7.084;2023-06-04T22:34:32;18.50;1.00
41987;DHT22;28361;50.740;7.084;2023-06-04T22:36:57;18.40;1.00
41987;DHT22;28361;50.740;7.084;2023-06-04T22:39:23;18.30;1.00
41987;DHT22;28361;50.740;7.084;2023-06-04T22:41:49;18.30;1.00
41987;DHT22;28361;50.740;7.084;2023-06-04T22:44:15;18.30;1.00
41987;DHT22;28361;50.740;7.084;2023-06-04T22:46:40;18.20;1.00
41987;DHT22;28361;50.740;7.084;2023-06-04T22:49:06;18.20;1.00
41987;DHT22;28361;50.740;7.084;2023-06-04T22:51:31;18.10;1.00
41987;DHT22;28361;50.740;7.084;2023-06-04T22:53:58;18.10;1.00
41987;DHT22;28361;50.740;7.084;2023-06-04T22:56:23;18.10;1.00
41987;DHT22;28361;50.740;7.084;2023-06-04T22:58:49;18.00;1.00
41987;DHT22;28361;50.740;7.084;2023-06-04T23:01:15;18.00;1.00
41987;DHT22;28361;50.740;7.084;2023-06-04T23:03:40;17.90;1.00
41987;DHT22;28361;50.740;7.084;2023-06-04T23:06:06;17.90;1.00
41987;DHT22;28361;50.740;7.084;2023-06-04T23:08:32;17.80;1.00
41987;DHT22;28361;50.740;7.084;2023-06-04T23:10:57;17.80;1.00
41987;DHT22;28361;50.740;7.084;2023-06-04T23:13:23;17.80;1.00
41987;DHT22;28361;50.740;7.084;2023-06-04T23:15:49;17.70;1.00
41987;DHT22;28361;50.740;7.084;2023-06-04T23:18:14;17.70;1.00
41987;DHT22;28361;50.740;7.084;2023-06-04T23:20:40;17.60;1.00
41987;DHT22;28361;50.740;7.084;2023-06-04T23:23:05;17.60;1.00
41987;DHT22;28361;50.740;7.084;2023-06-04T23:25:31;17.60;1.00
41987;DHT22;28361;50.740;7.084;2023-06-04T23:27:57;17.50;1.00
41987;DHT22;28361;50.740;7.084;2023-06-04T23:30:22;17.50;1.00
41987;DHT22;28361;50.740;7.084;2023-06-04T23:32:48;17.40;1.00
41987;DHT22;28361;50.740;7.084;2023-06-04T23:35:14;17.40;1.00
41987;DHT22;28361;50.740;7.084;2023-06-04T23:37:40;17.40;1.00
41987;DHT22;28361;50.740;7.084;2023-06-04T23:40:06;17.40;1.00
41987;DHT22;28361;50.740;7.084;2023-06-04T23:42:32;17.40;1.00
41987;DHT22;28361;50.740;7.084;2023-06-04T23:44:58;17.30;1.00
41987;DHT22;28361;50.740;7.084;2023-06-04T23:47:24;17.30;1.00
41987;DHT22;28361;50.740;7.084;2023-06-04T23:49:50;17.30;1.00
41987;DHT22;28361;50.740;7.084;2023-06-04T23:52:15;17.20;1.00
41987;DHT22;28361;50.740;7.084;2023-06-04T23:54:42;17.20;1.00
41987;DHT22;28361;50.740;7.084;2023-06-04T23:57:08;17.20;1.00
41987;DHT22;28361;50.740;7.084;2023-06-04T23:59:33;17.20;1.00
